Tipler, Wisconsin
Current Conditions -  °F | °C
As of 12:35 PM on Saturday 25 Oct 2014 (Local Time) from KEGV Reporting Station
Clear Clear  
Wind Chill: 56°   Ceiling: Unl
Heat Index: 56°   Visibility: 10mi
Dew Point: 25°   Wind: 18mph
Humidity: 31%   Direction: 310°NW
Pressure: 29.82"   Gusts: 29mph
Location:  45.9186°N, 88.7601°W
Report Text: KEGV 251735Z AUTO 31016G25KT 10SM CLR 13/M04 A2982 RMK AO2 T01321039
Loading
Personal Weather Stations






























Interactive Weather Map
Tropical Storm Tracking
New forecast layout! Learn more

10-Day Weather Forecast

Advertisements
Track Severe Weather on mobile